createdAt,value
2022-10-21T00:00:52.131Z,14.95
2022-10-21T00:03:20.134Z,11.13
2022-10-21T00:05:48.166Z,11.85
2022-10-21T00:08:16.882Z,12.27
2022-10-21T00:10:44.751Z,13.43
2022-10-21T00:13:13.383Z,12.38
2022-10-21T00:15:41.192Z,10.27
2022-10-21T00:18:10.465Z,8.10
2022-10-21T00:20:41.517Z,8.32
2022-10-21T00:23:09.329Z,9.25
2022-10-21T00:25:39.680Z,11.80
2022-10-21T00:28:07.504Z,10.73
2022-10-21T00:30:35.323Z,11.15
2022-10-21T00:33:03.448Z,12.35
2022-10-21T00:35:35.310Z,9.45
2022-10-21T00:38:03.180Z,10.10
2022-10-21T00:40:31.517Z,8.40
2022-10-21T00:42:59.436Z,10.93
2022-10-21T00:45:28.748Z,10.90
2022-10-21T00:48:00.701Z,8.82
2022-10-21T00:50:36.310Z,10.27
2022-10-21T00:53:11.783Z,10.30
2022-10-21T00:55:46.037Z,14.80
2022-10-21T00:58:14.123Z,13.43
2022-10-21T01:00:42.005Z,13.63
2022-10-21T01:03:09.971Z,8.60
2022-10-21T01:05:39.032Z,9.63
2022-10-21T01:08:08.297Z,12.13
2022-10-21T01:10:36.264Z,9.98
2022-10-21T01:13:16.186Z,8.73
2022-10-21T01:15:51.672Z,14.27
2022-10-21T01:18:28.412Z,7.95
2022-10-21T01:21:18.126Z,8.77
2022-10-21T01:24:32.596Z,10.13
2022-10-21T01:27:17.028Z,12.93
2022-10-21T01:30:12.364Z,11.27
2022-10-21T01:33:17.611Z,8.20
2022-10-21T01:35:50.194Z,11.23
2022-10-21T01:38:25.082Z,15.00
2022-10-21T01:40:58.304Z,15.40
2022-10-21T01:43:36.425Z,9.35
2022-10-21T01:46:08.349Z,12.80
2022-10-21T01:48:44.976Z,10.38
2022-10-21T01:51:14.363Z,13.13
2022-10-21T01:53:45.919Z,14.18
2022-10-21T01:56:16.591Z,13.32
2022-10-21T01:58:46.964Z,12.20
2022-10-21T02:01:16.814Z,12.32
2022-10-21T02:03:49.721Z,12.68
2022-10-21T02:06:18.075Z,12.13
2022-10-21T02:08:46.392Z,13.63
2022-10-21T02:11:15.013Z,13.10
2022-10-21T02:13:46.567Z,11.32
2022-10-21T02:16:18.528Z,12.82
2022-10-21T02:18:47.691Z,11.52
2022-10-21T02:21:19.436Z,14.57
2022-10-21T02:23:53.546Z,11.13
2022-10-21T02:26:21.801Z,13.15
2022-10-21T02:28:50.976Z,12.27
2022-10-21T02:31:36.478Z,10.32
2022-10-21T02:34:18.647Z,11.38
2022-10-21T02:36:54.399Z,12.50
2022-10-21T02:39:31.843Z,15.15
2022-10-21T02:42:02.263Z,13.00
2022-10-21T02:44:30.122Z,15.52
2022-10-21T02:46:57.990Z,11.27
2022-10-21T02:49:27.245Z,12.18
2022-10-21T02:51:55.241Z,13.25
2022-10-21T02:54:23.370Z,14.82
2022-10-21T02:56:51.201Z,18.67
2022-10-21T02:59:19.017Z,13.57
2022-10-21T03:01:46.843Z,13.38
2022-10-21T03:04:14.642Z,12.70
2022-10-21T03:06:43.811Z,10.50
2022-10-21T03:09:11.777Z,10.82
2022-10-21T03:11:39.584Z,8.82
2022-10-21T03:14:07.432Z,12.98
2022-10-21T03:16:35.272Z,11.57
2022-10-21T03:19:03.685Z,10.80
2022-10-21T03:21:31.516Z,10.15
2022-10-21T03:24:00.658Z,11.05
2022-10-21T03:26:28.494Z,9.40
2022-10-21T03:28:56.271Z,10.20
2022-10-21T03:31:24.120Z,11.88
2022-10-21T03:33:51.949Z,10.98
2022-10-21T03:36:20.194Z,9.52
2022-10-21T03:38:47.993Z,10.60
2022-10-21T03:41:17.178Z,8.73
2022-10-21T03:43:44.957Z,12.73
2022-10-21T03:46:12.772Z,8.40
2022-10-21T03:48:40.590Z,10.38
2022-10-21T03:51:08.433Z,9.18
2022-10-21T03:53:43.140Z,10.05
2022-10-21T03:56:11.490Z,10.82
2022-10-21T03:58:40.796Z,10.95
2022-10-21T04:01:12.847Z,13.20
2022-10-21T04:03:40.816Z,10.60
2022-10-21T04:06:08.850Z,10.95
2022-10-21T04:08:36.683Z,11.10
2022-10-21T04:11:04.625Z,10.38
2022-10-21T04:13:32.661Z,10.82
2022-10-21T04:16:03.507Z,9.18
2022-10-21T04:18:31.463Z,13.18
2022-10-21T04:20:59.325Z,10.48
2022-10-21T04:23:27.167Z,9.80
2022-10-21T04:25:54.998Z,10.25
2022-10-21T04:28:22.891Z,13.02
2022-10-21T04:30:51.211Z,10.95
2022-10-21T04:33:20.398Z,9.48
2022-10-21T04:35:48.189Z,11.73
2022-10-21T04:38:16.078Z,10.13
2022-10-21T04:40:43.956Z,10.10
2022-10-21T04:43:11.805Z,11.00
2022-10-21T04:45:40.557Z,11.40
2022-10-21T04:48:08.700Z,8.75
2022-10-21T04:50:37.881Z,18.60
2022-10-21T04:53:05.746Z,9.40
2022-10-21T04:55:33.570Z,14.20
2022-10-21T04:58:01.430Z,14.32
2022-10-21T05:00:29.262Z,12.77
2022-10-21T05:02:57.124Z,11.27
2022-10-21T05:05:24.977Z,10.40
2022-10-21T05:07:54.157Z,9.43
2022-10-21T05:10:22.416Z,10.23
2022-10-21T05:12:50.263Z,11.35
2022-10-21T05:15:18.159Z,9.68
2022-10-21T05:17:46.005Z,8.93
2022-10-21T05:20:14.014Z,9.43
2022-10-21T05:22:42.271Z,10.00
2022-10-21T05:25:11.856Z,12.05
2022-10-21T05:27:39.689Z,10.68
2022-10-21T05:30:08.736Z,19.45
2022-10-21T05:32:36.895Z,10.77
2022-10-21T05:35:05.258Z,17.60
2022-10-21T05:37:33.278Z,11.70
2022-10-21T05:40:01.147Z,14.63
2022-10-21T05:42:30.314Z,9.40
2022-10-21T05:44:58.148Z,13.15
2022-10-21T05:47:26.062Z,14.68
2022-10-21T05:49:53.902Z,15.13
2022-10-21T05:52:21.750Z,12.00
2022-10-21T05:54:49.561Z,12.63
2022-10-21T05:57:17.414Z,10.82
2022-10-21T05:59:46.545Z,11.32
2022-10-21T06:02:14.365Z,11.35
2022-10-21T06:04:42.190Z,15.02
2022-10-21T06:07:10.284Z,13.13
2022-10-21T06:09:38.736Z,10.48
2022-10-21T06:12:07.618Z,14.00
2022-10-21T06:14:36.535Z,14.95
2022-10-21T06:17:06.082Z,11.95
2022-10-21T06:19:33.864Z,13.30
2022-10-21T06:22:01.712Z,12.98
2022-10-21T06:24:29.905Z,11.25
2022-10-21T06:26:57.729Z,15.95
2022-10-21T06:29:25.665Z,15.18
2022-10-21T06:31:53.517Z,16.15
2022-10-21T06:34:23.245Z,10.73
2022-10-21T06:36:51.123Z,13.80
2022-10-21T06:39:19.074Z,12.85
2022-10-21T06:41:46.936Z,24.95
2022-10-21T06:44:14.736Z,12.02
2022-10-21T06:46:43.164Z,15.80
2022-10-21T06:49:10.990Z,20.17
2022-10-21T06:51:40.198Z,13.48
2022-10-21T06:54:08.054Z,15.35
2022-10-21T06:56:35.874Z,16.02
2022-10-21T06:59:03.707Z,13.98
2022-10-21T07:01:47.991Z,17.13
2022-10-21T07:04:21.055Z,17.88
2022-10-21T07:06:50.253Z,18.75
2022-10-21T07:09:18.508Z,17.48
2022-10-21T07:11:46.400Z,16.95
2022-10-21T07:14:14.252Z,13.68
2022-10-21T07:16:42.167Z,13.00
2022-10-21T07:19:11.288Z,17.05
2022-10-21T07:21:39.270Z,22.85
2022-10-21T07:24:08.655Z,17.42
2022-10-21T07:26:36.623Z,19.65
2022-10-21T07:29:05.274Z,16.75
2022-10-21T07:31:36.147Z,17.42
2022-10-21T07:36:40.353Z,16.90
2022-10-21T07:39:13.745Z,14.73
2022-10-21T07:41:43.766Z,20.58
2022-10-21T07:44:12.299Z,16.55
2022-10-21T07:46:40.960Z,13.20
2022-10-21T07:49:09.572Z,12.73
2022-10-21T07:51:37.837Z,17.38
2022-10-21T07:54:06.381Z,20.08
2022-10-21T07:56:37.485Z,22.15
2022-10-21T07:59:10.317Z,17.35
2022-10-21T08:01:44.206Z,16.73
2022-10-21T08:04:13.926Z,15.60
2022-10-21T08:06:41.849Z,15.85
2022-10-21T08:09:09.779Z,18.20
2022-10-21T08:11:39.292Z,17.38
2022-10-21T08:14:08.660Z,20.67
2022-10-21T08:16:37.067Z,14.40
2022-10-21T08:19:06.007Z,17.15
2022-10-21T08:21:34.107Z,12.07
2022-10-21T08:24:03.740Z,14.40
2022-10-21T08:26:31.897Z,16.85
2022-10-21T08:29:02.707Z,14.02
2022-10-21T08:31:30.603Z,16.80
2022-10-21T08:33:59.324Z,18.52
2022-10-21T08:36:27.798Z,14.65
2022-10-21T08:38:56.233Z,15.57
2022-10-21T08:41:39.495Z,12.98
2022-10-21T08:44:24.982Z,12.60
2022-10-21T08:46:58.146Z,15.63
2022-10-21T08:49:30.891Z,16.23
2022-10-21T08:52:04.126Z,17.00
2022-10-21T08:54:40.646Z,22.48
2022-10-21T08:57:11.663Z,16.98
2022-10-21T08:59:42.091Z,14.57
2022-10-21T09:02:30.411Z,22.10
2022-10-21T09:05:20.395Z,18.23
2022-10-21T09:07:57.510Z,14.95
2022-10-21T09:10:34.274Z,18.95
2022-10-21T09:13:10.918Z,12.80
2022-10-21T09:15:50.370Z,12.13
2022-10-21T09:18:30.572Z,12.30
2022-10-21T09:21:05.821Z,14.90
2022-10-21T09:23:44.665Z,14.48
2022-10-21T09:26:27.992Z,18.42
2022-10-21T09:28:58.255Z,14.57
2022-10-21T09:31:30.311Z,15.95
2022-10-21T09:34:02.708Z,16.98
2022-10-21T09:36:36.103Z,12.05
2022-10-21T09:39:08.347Z,14.70
2022-10-21T09:44:07.984Z,16.50
2022-10-21T09:46:37.316Z,14.43
2022-10-21T09:51:53.619Z,14.77
2022-10-21T09:54:25.102Z,13.35
2022-10-21T09:56:59.846Z,16.65
2022-10-21T09:59:32.945Z,11.70
2022-10-21T10:02:09.193Z,17.27
2022-10-21T10:04:37.064Z,15.18
2022-10-21T10:07:21.825Z,16.90
2022-10-21T10:09:49.893Z,13.90
2022-10-21T10:12:22.481Z,16.13
2022-10-21T10:14:50.869Z,15.13
2022-10-21T10:17:29.866Z,17.65
2022-10-21T10:20:17.006Z,22.27
2022-10-21T10:22:45.880Z,14.38
2022-10-21T10:25:22.768Z,17.02
2022-10-21T10:27:53.357Z,18.08
2022-10-21T10:30:30.565Z,16.48
2022-10-21T10:33:10.369Z,18.70
2022-10-21T10:35:51.444Z,14.10
2022-10-21T10:38:24.721Z,15.80
2022-10-21T10:40:56.306Z,16.05
2022-10-21T10:43:30.757Z,14.20
2022-10-21T10:48:37.092Z,17.52
2022-10-21T10:51:08.954Z,13.70
2022-10-21T10:53:38.844Z,15.40
2022-10-21T10:56:21.422Z,12.95
2022-10-21T10:58:55.162Z,12.90
2022-10-21T11:01:29.455Z,13.13
2022-10-21T11:04:03.767Z,13.68
2022-10-21T11:06:41.330Z,12.95
2022-10-21T11:09:09.855Z,16.67
2022-10-21T11:11:41.156Z,17.83
2022-10-21T11:14:17.574Z,19.02
2022-10-21T11:17:01.059Z,12.90
2022-10-21T11:19:41.328Z,17.65
2022-10-21T11:22:14.978Z,13.25
2022-10-21T11:24:55.393Z,27.52
2022-10-21T11:27:34.739Z,28.50
2022-10-21T11:30:09.667Z,43.90
2022-10-21T11:32:54.171Z,29.67
2022-10-21T11:35:34.371Z,14.68
2022-10-21T11:38:22.817Z,15.45
2022-10-21T11:40:54.297Z,16.85
2022-10-21T11:43:39.213Z,15.20
2022-10-21T11:46:13.596Z,12.30
2022-10-21T11:48:57.057Z,15.10
2022-10-21T11:51:36.369Z,15.68
2022-10-21T11:54:21.844Z,14.40
2022-10-21T11:56:58.167Z,16.75
2022-10-21T11:59:37.020Z,14.48
2022-10-21T12:02:15.963Z,11.05
2022-10-21T12:04:52.669Z,10.30
2022-10-21T12:07:43.106Z,14.63
2022-10-21T12:10:19.446Z,12.23
2022-10-21T12:12:50.119Z,10.50
2022-10-21T12:15:21.982Z,14.25
2022-10-21T12:17:50.734Z,13.60
2022-10-21T12:20:23.894Z,15.02
2022-10-21T12:23:05.442Z,12.82
2022-10-21T12:25:41.807Z,12.48
2022-10-21T12:28:17.257Z,16.38
2022-10-21T12:30:54.615Z,11.38
2022-10-21T12:33:35.670Z,10.43
2022-10-21T12:36:19.071Z,12.18
2022-10-21T12:38:50.874Z,13.98
2022-10-21T12:41:36.194Z,10.45
2022-10-21T12:44:14.066Z,8.90
2022-10-21T12:46:44.396Z,15.50
2022-10-21T12:49:30.608Z,11.02
2022-10-21T12:52:07.319Z,12.93
2022-10-21T12:54:43.306Z,10.73
2022-10-21T12:57:13.339Z,9.70
2022-10-21T12:59:43.200Z,9.38
2022-10-21T13:02:24.445Z,7.20
2022-10-21T13:04:55.630Z,9.60
2022-10-21T13:07:35.504Z,8.73
2022-10-21T13:10:27.700Z,6.88
2022-10-21T13:13:33.686Z,7.22
2022-10-21T13:16:23.733Z,6.70
2022-10-21T13:19:24.551Z,7.82
2022-10-21T13:22:03.177Z,8.93
2022-10-21T13:24:33.450Z,7.60
2022-10-21T13:27:04.500Z,7.30
2022-10-21T13:29:41.426Z,7.22
2022-10-21T13:32:34.270Z,4.43
2022-10-21T13:35:20.213Z,10.60
2022-10-21T13:37:56.693Z,6.47
2022-10-21T13:40:29.813Z,7.03
2022-10-21T13:43:00.790Z,5.53
2022-10-21T13:45:31.211Z,7.00
2022-10-21T13:48:08.140Z,5.70
2022-10-21T13:50:40.722Z,7.70
2022-10-21T13:53:29.510Z,5.05
2022-10-21T13:56:00.551Z,4.13
2022-10-21T13:58:29.810Z,7.13
2022-10-21T14:00:59.136Z,9.18
2022-10-21T14:03:27.980Z,5.50
2022-10-21T14:05:59.762Z,6.97
2022-10-21T14:08:33.049Z,3.50
2022-10-21T14:11:03.127Z,7.95
2022-10-21T14:13:36.849Z,6.82
2022-10-21T14:16:06.043Z,7.88
2022-10-21T14:18:37.566Z,7.07
2022-10-21T14:21:06.622Z,7.97
2022-10-21T14:23:35.954Z,6.13
2022-10-21T14:26:07.076Z,6.68
2022-10-21T14:28:35.678Z,6.80
2022-10-21T14:33:39.314Z,6.95
2022-10-21T14:36:14.867Z,9.60
2022-10-21T14:38:52.768Z,6.85
2022-10-21T14:41:24.209Z,7.32
2022-10-21T14:43:53.145Z,5.25
2022-10-21T14:46:21.977Z,6.85
2022-10-21T14:48:54.602Z,8.65
2022-10-21T14:51:24.027Z,6.82
2022-10-21T14:53:56.982Z,4.72
2022-10-21T14:56:30.874Z,7.13
2022-10-21T14:59:00.961Z,11.73
2022-10-21T15:01:28.830Z,7.45
2022-10-21T15:03:58.598Z,6.05
2022-10-21T15:06:28.361Z,6.03
2022-10-21T15:09:17.070Z,3.90
2022-10-21T15:11:46.961Z,5.18
2022-10-21T15:14:31.758Z,5.70
2022-10-21T15:17:02.512Z,4.72
2022-10-21T15:19:41.502Z,8.45
2022-10-21T15:22:24.267Z,3.10
2022-10-21T15:24:54.925Z,3.78
2022-10-21T15:27:29.079Z,5.32
2022-10-21T15:29:57.186Z,2.65
2022-10-21T15:32:30.245Z,3.33
2022-10-21T15:34:59.499Z,4.57
2022-10-21T15:37:27.341Z,4.55
2022-10-21T15:39:56.711Z,5.28
2022-10-21T15:42:24.586Z,5.65
2022-10-21T15:44:52.509Z,6.35
2022-10-21T15:47:20.717Z,3.40
2022-10-21T15:49:49.287Z,4.28
2022-10-21T15:52:17.154Z,4.57
2022-10-21T15:54:45.418Z,4.43
2022-10-21T15:57:18.076Z,6.20
2022-10-21T15:59:46.308Z,7.20
2022-10-21T16:02:17.060Z,4.65
2022-10-21T16:04:45.729Z,4.20
2022-10-21T16:07:19.753Z,3.92
2022-10-21T16:09:48.198Z,3.42
2022-10-21T16:12:20.648Z,2.40
2022-10-21T16:14:48.593Z,3.92
2022-10-21T16:17:16.576Z,5.30
2022-10-21T16:19:44.370Z,3.92
2022-10-21T16:22:16.401Z,4.28
2022-10-21T16:24:44.231Z,5.15
2022-10-21T16:27:13.648Z,6.10
2022-10-21T16:29:43.487Z,4.38
2022-10-21T16:32:12.798Z,3.80
2022-10-21T16:34:40.784Z,16.83
2022-10-21T16:37:21.629Z,11.00
2022-10-21T16:39:49.466Z,22.85
2022-10-21T16:42:17.451Z,10.93
2022-10-21T16:44:46.620Z,10.65
2022-10-21T16:47:18.935Z,11.35
2022-10-21T16:49:47.805Z,10.57
2022-10-21T16:52:17.034Z,6.10
2022-10-21T16:54:48.616Z,4.70
2022-10-21T16:57:16.877Z,6.65
2022-10-21T16:59:46.195Z,7.80
2022-10-21T17:02:16.930Z,4.47
2022-10-21T17:04:45.497Z,9.18
2022-10-21T17:07:13.766Z,6.35
2022-10-21T17:09:41.572Z,5.18
2022-10-21T17:12:11.750Z,6.80
2022-10-21T17:14:39.597Z,9.70
2022-10-21T17:17:08.898Z,6.00
2022-10-21T17:19:36.752Z,2.85
2022-10-21T17:22:04.581Z,3.20
2022-10-21T17:24:32.389Z,4.72
2022-10-21T17:27:00.208Z,4.68
2022-10-21T17:29:28.062Z,3.40
2022-10-21T17:31:55.920Z,5.18
2022-10-21T17:34:29.143Z,4.93
2022-10-21T17:36:57.318Z,3.58
2022-10-21T17:39:25.608Z,2.03
2022-10-21T17:41:53.753Z,4.45
2022-10-21T17:44:21.815Z,2.65
2022-10-21T17:46:54.252Z,3.70
2022-10-21T17:49:22.408Z,4.47
2022-10-21T17:51:51.750Z,3.83
2022-10-21T17:54:24.114Z,7.30
2022-10-21T17:56:56.679Z,3.80
2022-10-21T17:59:24.735Z,4.03
2022-10-21T18:01:52.582Z,2.90
2022-10-21T18:04:20.394Z,4.68
2022-10-21T18:06:48.290Z,10.68
2022-10-21T18:09:18.379Z,5.60
2022-10-21T18:11:46.289Z,3.95
2022-10-21T18:14:15.134Z,2.38
2022-10-21T18:16:43.022Z,5.35
2022-10-21T18:19:11.986Z,4.00
2022-10-21T18:21:40.209Z,5.30
2022-10-21T18:24:12.197Z,3.47
2022-10-21T18:26:41.938Z,4.13
2022-10-21T18:29:09.993Z,6.20
2022-10-21T18:31:38.671Z,5.45
2022-10-21T18:34:09.118Z,4.15
2022-10-21T18:36:37.062Z,2.88
2022-10-21T18:39:06.362Z,3.30
2022-10-21T18:41:34.494Z,2.40
2022-10-21T18:44:08.223Z,3.67
2022-10-21T18:46:37.516Z,5.60
2022-10-21T18:49:07.843Z,4.30
2022-10-21T18:51:35.818Z,2.83
2022-10-21T18:54:03.684Z,3.45
2022-10-21T18:56:31.703Z,2.70
2022-10-21T18:58:59.577Z,4.53
2022-10-21T19:01:28.814Z,4.82
2022-10-21T19:03:56.679Z,2.95
2022-10-21T19:06:38.278Z,3.42
2022-10-21T19:09:10.034Z,3.20
2022-10-21T19:11:37.971Z,3.60
2022-10-21T19:14:08.414Z,2.30
2022-10-21T19:16:40.767Z,2.72
2022-10-21T19:19:08.966Z,2.60
2022-10-21T19:21:37.131Z,3.83
2022-10-21T19:24:05.450Z,6.05
2022-10-21T19:26:35.361Z,3.63
2022-10-21T19:29:05.248Z,1.95
2022-10-21T19:31:36.243Z,2.30
2022-10-21T19:34:07.083Z,3.30
2022-10-21T19:36:35.410Z,2.78
2022-10-21T19:39:03.220Z,3.65
2022-10-21T19:41:31.040Z,4.85
2022-10-21T19:43:59.281Z,5.88
2022-10-21T19:46:29.505Z,1.50
2022-10-21T19:48:58.056Z,1.80
2022-10-21T19:51:27.506Z,3.33
2022-10-21T19:53:56.581Z,2.75
2022-10-21T19:56:29.615Z,2.63
2022-10-21T19:59:02.346Z,2.20
2022-10-21T20:01:30.545Z,3.05
2022-10-21T20:03:58.505Z,3.42
2022-10-21T20:06:30.006Z,1.63
2022-10-21T20:08:59.603Z,1.52
2022-10-21T20:11:28.488Z,3.35
2022-10-21T20:13:57.121Z,4.22
2022-10-21T20:16:27.028Z,5.93
2022-10-21T20:18:55.814Z,1.38
2022-10-21T20:21:24.266Z,1.55
2022-10-21T20:23:53.477Z,2.15
2022-10-21T20:26:22.612Z,1.65
2022-10-21T20:28:50.824Z,3.40
2022-10-21T20:31:19.314Z,1.40
2022-10-21T20:33:50.253Z,1.85
2022-10-21T20:36:20.424Z,1.48
2022-10-21T20:38:49.783Z,1.67
2022-10-21T20:41:22.056Z,2.13
2022-10-21T20:46:19.443Z,1.77
2022-10-21T20:48:49.321Z,4.35
2022-10-21T20:51:19.109Z,1.63
2022-10-21T20:56:22.133Z,1.65
2022-10-21T20:58:50.182Z,2.58
2022-10-21T21:01:22.123Z,1.52
2022-10-21T21:03:50.753Z,2.00
2022-10-21T21:06:18.862Z,2.47
2022-10-21T21:08:49.317Z,1.27
2022-10-21T21:11:29.272Z,2.45
2022-10-21T21:13:57.090Z,2.50
2022-10-21T21:16:25.138Z,4.13
2022-10-21T21:18:55.038Z,2.83
2022-10-21T21:21:24.108Z,3.90
2022-10-21T21:23:52.514Z,1.90
2022-10-21T21:26:21.629Z,2.13
2022-10-21T21:28:51.715Z,2.33
2022-10-21T21:31:21.510Z,2.30
2022-10-21T21:33:49.531Z,2.15
2022-10-21T21:36:18.932Z,2.85
2022-10-21T21:38:47.259Z,2.05
2022-10-21T21:41:16.720Z,2.47
2022-10-21T21:43:46.241Z,4.30
2022-10-21T21:46:22.501Z,2.13
2022-10-21T21:48:53.917Z,1.52
2022-10-21T21:51:23.898Z,2.80
2022-10-21T21:53:52.384Z,2.13
2022-10-21T21:56:21.340Z,1.30
2022-10-21T21:58:50.167Z,3.65
2022-10-21T22:01:21.219Z,1.70
2022-10-21T22:03:51.743Z,2.45
2022-10-21T22:06:20.765Z,1.52
2022-10-21T22:08:49.412Z,2.95
2022-10-21T22:11:19.054Z,2.97
2022-10-21T22:13:47.124Z,3.30
2022-10-21T22:16:15.964Z,4.30
2022-10-21T22:18:45.258Z,4.00
2022-10-21T22:21:14.893Z,3.72
2022-10-21T22:23:43.796Z,3.88
2022-10-21T22:26:12.920Z,4.55
2022-10-21T22:28:41.354Z,4.35
2022-10-21T22:31:12.192Z,3.78
2022-10-21T22:33:41.714Z,3.22
2022-10-21T22:36:11.197Z,2.00
2022-10-21T22:38:39.014Z,1.83
2022-10-21T22:41:09.983Z,2.75
2022-10-21T22:43:40.513Z,2.83
2022-10-21T22:46:22.074Z,2.17
2022-10-21T22:48:56.672Z,2.33
2022-10-21T22:51:25.861Z,4.57
2022-10-21T22:53:56.394Z,5.20
2022-10-21T22:56:24.907Z,4.68
2022-10-21T22:58:52.849Z,2.60
2022-10-21T23:01:20.872Z,5.78
2022-10-21T23:03:48.716Z,4.88
2022-10-21T23:06:16.610Z,3.67
2022-10-21T23:08:45.892Z,2.88
2022-10-21T23:11:14.370Z,4.30
2022-10-21T23:13:56.091Z,5.88
2022-10-21T23:16:30.139Z,2.40
2022-10-21T23:18:58.131Z,3.42
2022-10-21T23:21:26.056Z,2.42
2022-10-21T23:23:55.481Z,2.28
2022-10-21T23:26:23.305Z,2.42
2022-10-21T23:28:51.132Z,6.13
2022-10-21T23:31:19.730Z,2.92
2022-10-21T23:33:47.560Z,3.78
2022-10-21T23:36:15.429Z,3.33
2022-10-21T23:38:43.209Z,2.25
2022-10-21T23:41:12.388Z,3.10
2022-10-21T23:43:40.197Z,2.30
2022-10-21T23:46:08.048Z,3.00
2022-10-21T23:48:35.898Z,3.97
2022-10-21T23:51:04.227Z,4.60
2022-10-21T23:53:32.096Z,2.67
2022-10-21T23:55:59.943Z,2.38
2022-10-21T23:58:29.184Z,4.22
